sensor_id;sensor_type;location;lat;lon;timestamp;P1;durP1;ratioP1;P2;durP2;ratioP2
49820;SDS011;36893;52.520;13.450;2022-07-12T00:00:44;4.35;;;1.48;;
49820;SDS011;36893;52.520;13.450;2022-07-12T00:10:45;2.83;;;1.13;;
49820;SDS011;36893;52.520;13.450;2022-07-12T00:20:45;6.15;;;1.38;;
49820;SDS011;36893;52.520;13.450;2022-07-12T00:30:46;5.68;;;1.40;;
49820;SDS011;36893;52.520;13.450;2022-07-12T00:40:47;2.17;;;1.00;;
49820;SDS011;36893;52.520;13.450;2022-07-12T00:50:49;3.53;;;0.90;;
49820;SDS011;36893;52.520;13.450;2022-07-12T01:00:50;0.98;;;0.70;;
49820;SDS011;36893;52.520;13.450;2022-07-12T01:10:51;4.45;;;0.90;;
49820;SDS011;36893;52.520;13.450;2022-07-12T01:20:52;2.10;;;0.90;;
49820;SDS011;36893;52.520;13.450;2022-07-12T01:30:54;4.43;;;0.98;;
49820;SDS011;36893;52.520;13.450;2022-07-12T01:40:55;2.85;;;1.00;;
49820;SDS011;36893;52.520;13.450;2022-07-12T01:50:56;4.63;;;0.82;;
49820;SDS011;36893;52.520;13.450;2022-07-12T02:00:57;1.20;;;0.73;;
49820;SDS011;36893;52.520;13.450;2022-07-12T02:10:58;4.22;;;0.95;;
49820;SDS011;36893;52.520;13.450;2022-07-12T02:20:59;2.23;;;0.90;;
49820;SDS011;36893;52.520;13.450;2022-07-12T02:31:00;1.67;;;0.82;;
49820;SDS011;36893;52.520;13.450;2022-07-12T02:41:01;1.75;;;0.90;;
49820;SDS011;36893;52.520;13.450;2022-07-12T02:51:02;1.38;;;0.90;;
49820;SDS011;36893;52.520;13.450;2022-07-12T03:01:04;2.28;;;1.02;;
49820;SDS011;36893;52.520;13.450;2022-07-12T03:11:05;4.40;;;1.47;;
49820;SDS011;36893;52.520;13.450;2022-07-12T03:21:05;3.77;;;1.17;;
49820;SDS011;36893;52.520;13.450;2022-07-12T03:31:06;4.70;;;1.40;;
49820;SDS011;36893;52.520;13.450;2022-07-12T03:41:10;3.45;;;1.00;;
49820;SDS011;36893;52.520;13.450;2022-07-12T03:51:12;2.35;;;1.02;;
49820;SDS011;36893;52.520;13.450;2022-07-12T04:01:12;2.97;;;1.00;;
49820;SDS011;36893;52.520;13.450;2022-07-12T04:11:13;4.07;;;0.80;;
49820;SDS011;36893;52.520;13.450;2022-07-12T04:21:14;4.47;;;0.88;;
49820;SDS011;36893;52.520;13.450;2022-07-12T04:31:15;4.30;;;1.00;;
49820;SDS011;36893;52.520;13.450;2022-07-12T04:41:16;2.72;;;0.75;;
49820;SDS011;36893;52.520;13.450;2022-07-12T04:51:17;2.92;;;0.75;;
49820;SDS011;36893;52.520;13.450;2022-07-12T05:01:17;1.52;;;0.90;;
49820;SDS011;36893;52.520;13.450;2022-07-12T05:11:18;1.80;;;0.70;;
49820;SDS011;36893;52.520;13.450;2022-07-12T05:21:19;2.33;;;0.80;;
49820;SDS011;36893;52.520;13.450;2022-07-12T05:31:20;5.37;;;1.40;;
49820;SDS011;36893;52.520;13.450;2022-07-12T05:41:20;7.00;;;0.73;;
49820;SDS011;36893;52.520;13.450;2022-07-12T05:51:21;5.40;;;0.77;;
49820;SDS011;36893;52.520;13.450;2022-07-12T06:01:41;2.45;;;0.80;;
49820;SDS011;36893;52.520;13.450;2022-07-12T06:11:42;2.50;;;0.70;;
49820;SDS011;36893;52.520;13.450;2022-07-12T06:21:43;2.03;;;1.05;;
49820;SDS011;36893;52.520;13.450;2022-07-12T06:31:44;6.53;;;0.85;;
49820;SDS011;36893;52.520;13.450;2022-07-12T06:41:44;2.20;;;0.80;;
49820;SDS011;36893;52.520;13.450;2022-07-12T06:51:45;0.80;;;0.50;;
49820;SDS011;36893;52.520;13.450;2022-07-12T07:01:46;1.88;;;0.60;;
49820;SDS011;36893;52.520;13.450;2022-07-12T07:11:47;3.67;;;0.60;;
49820;SDS011;36893;52.520;13.450;2022-07-12T07:21:48;1.58;;;0.70;;
49820;SDS011;36893;52.520;13.450;2022-07-12T07:31:49;3.78;;;0.80;;
49820;SDS011;36893;52.520;13.450;2022-07-12T07:41:49;0.67;;;0.60;;
49820;SDS011;36893;52.520;13.450;2022-07-12T07:51:50;1.60;;;0.60;;
49820;SDS011;36893;52.520;13.450;2022-07-12T08:01:51;4.10;;;0.82;;
49820;SDS011;36893;52.520;13.450;2022-07-12T08:11:52;0.40;;;0.40;;
49820;SDS011;36893;52.520;13.450;2022-07-12T08:21:53;1.40;;;0.63;;
49820;SDS011;36893;52.520;13.450;2022-07-12T08:31:54;1.08;;;0.40;;
49820;SDS011;36893;52.520;13.450;2022-07-12T08:41:55;1.90;;;0.80;;
49820;SDS011;36893;52.520;13.450;2022-07-12T08:51:55;1.23;;;0.73;;
49820;SDS011;36893;52.520;13.450;2022-07-12T09:01:56;2.92;;;0.68;;
49820;SDS011;36893;52.520;13.450;2022-07-12T09:11:59;2.03;;;0.50;;
49820;SDS011;36893;52.520;13.450;2022-07-12T09:22:00;2.80;;;0.60;;
49820;SDS011;36893;52.520;13.450;2022-07-12T09:32:08;3.60;;;1.25;;
49820;SDS011;36893;52.520;13.450;2022-07-12T09:42:29;6.00;;;0.90;;
49820;SDS011;36893;52.520;13.450;2022-07-12T09:52:30;6.53;;;1.10;;
49820;SDS011;36893;52.520;13.450;2022-07-12T10:02:41;4.35;;;0.90;;
49820;SDS011;36893;52.520;13.450;2022-07-12T10:12:42;2.63;;;0.80;;
49820;SDS011;36893;52.520;13.450;2022-07-12T10:22:44;17.77;;;0.85;;
49820;SDS011;36893;52.520;13.450;2022-07-12T10:32:46;4.72;;;1.25;;
49820;SDS011;36893;52.520;13.450;2022-07-12T11:03:43;2.45;;;0.68;;
49820;SDS011;36893;52.520;13.450;2022-07-12T11:13:46;3.42;;;0.80;;
49820;SDS011;36893;52.520;13.450;2022-07-12T11:23:48;2.40;;;0.60;;
49820;SDS011;36893;52.520;13.450;2022-07-12T11:33:49;5.82;;;0.50;;
49820;SDS011;36893;52.520;13.450;2022-07-12T11:43:51;3.22;;;0.88;;
49820;SDS011;36893;52.520;13.450;2022-07-12T11:53:52;2.20;;;0.77;;
49820;SDS011;36893;52.520;13.450;2022-07-12T12:03:53;1.23;;;0.57;;
49820;SDS011;36893;52.520;13.450;2022-07-12T12:13:56;1.08;;;0.63;;
49820;SDS011;36893;52.520;13.450;2022-07-12T12:24:10;1.52;;;0.55;;
49820;SDS011;36893;52.520;13.450;2022-07-12T12:34:11;3.65;;;0.57;;
49820;SDS011;36893;52.520;13.450;2022-07-12T12:44:13;1.63;;;0.40;;
49820;SDS011;36893;52.520;13.450;2022-07-12T12:54:30;2.25;;;0.52;;
49820;SDS011;36893;52.520;13.450;2022-07-12T13:04:41;1.85;;;0.60;;
49820;SDS011;36893;52.520;13.450;2022-07-12T13:14:42;0.40;;;0.30;;
49820;SDS011;36893;52.520;13.450;2022-07-12T13:24:43;0.40;;;0.40;;
49820;SDS011;36893;52.520;13.450;2022-07-12T13:34:47;0.40;;;0.40;;
49820;SDS011;36893;52.520;13.450;2022-07-12T13:44:49;2.20;;;0.50;;
49820;SDS011;36893;52.520;13.450;2022-07-12T13:54:49;1.92;;;0.47;;
49820;SDS011;36893;52.520;13.450;2022-07-12T14:04:50;1.35;;;0.40;;
49820;SDS011;36893;52.520;13.450;2022-07-12T14:14:52;2.10;;;0.60;;
49820;SDS011;36893;52.520;13.450;2022-07-12T14:25:11;2.38;;;0.70;;
49820;SDS011;36893;52.520;13.450;2022-07-12T14:35:12;1.35;;;0.60;;
49820;SDS011;36893;52.520;13.450;2022-07-12T14:45:13;2.63;;;0.80;;
49820;SDS011;36893;52.520;13.450;2022-07-12T14:55:14;1.58;;;0.70;;
49820;SDS011;36893;52.520;13.450;2022-07-12T15:05:14;1.48;;;0.60;;
49820;SDS011;36893;52.520;13.450;2022-07-12T15:15:15;1.55;;;0.65;;
49820;SDS011;36893;52.520;13.450;2022-07-12T15:25:16;2.17;;;0.80;;
49820;SDS011;36893;52.520;13.450;2022-07-12T15:35:17;1.45;;;0.50;;
49820;SDS011;36893;52.520;13.450;2022-07-12T15:45:18;1.35;;;0.63;;
49820;SDS011;36893;52.520;13.450;2022-07-12T15:55:19;1.65;;;0.73;;
49820;SDS011;36893;52.520;13.450;2022-07-12T16:05:20;2.13;;;0.63;;
49820;SDS011;36893;52.520;13.450;2022-07-12T16:15:21;4.22;;;0.60;;
49820;SDS011;36893;52.520;13.450;2022-07-12T16:25:22;1.23;;;0.50;;
49820;SDS011;36893;52.520;13.450;2022-07-12T16:35:22;1.50;;;0.67;;
49820;SDS011;36893;52.520;13.450;2022-07-12T16:45:23;2.22;;;0.90;;
49820;SDS011;36893;52.520;13.450;2022-07-12T16:55:28;2.58;;;0.93;;
49820;SDS011;36893;52.520;13.450;2022-07-12T17:05:29;4.37;;;1.37;;
49820;SDS011;36893;52.520;13.450;2022-07-12T17:15:29;2.37;;;1.10;;
49820;SDS011;36893;52.520;13.450;2022-07-12T17:25:30;8.50;;;1.47;;
49820;SDS011;36893;52.520;13.450;2022-07-12T17:35:31;5.43;;;1.45;;
49820;SDS011;36893;52.520;13.450;2022-07-12T17:45:32;4.43;;;0.80;;
49820;SDS011;36893;52.520;13.450;2022-07-12T17:55:33;3.42;;;0.90;;
49820;SDS011;36893;52.520;13.450;2022-07-12T18:05:34;9.97;;;1.07;;
49820;SDS011;36893;52.520;13.450;2022-07-12T18:15:35;1.75;;;0.80;;
49820;SDS011;36893;52.520;13.450;2022-07-12T18:25:35;1.83;;;0.80;;
49820;SDS011;36893;52.520;13.450;2022-07-12T18:35:37;2.33;;;1.10;;
49820;SDS011;36893;52.520;13.450;2022-07-12T18:45:39;1.57;;;1.00;;
49820;SDS011;36893;52.520;13.450;2022-07-12T18:55:40;2.42;;;0.90;;
49820;SDS011;36893;52.520;13.450;2022-07-12T19:05:41;3.47;;;1.10;;
49820;SDS011;36893;52.520;13.450;2022-07-12T19:15:42;2.33;;;1.00;;
49820;SDS011;36893;52.520;13.450;2022-07-12T19:25:43;6.30;;;1.17;;
49820;SDS011;36893;52.520;13.450;2022-07-12T19:35:45;1.58;;;0.93;;
49820;SDS011;36893;52.520;13.450;2022-07-12T19:45:46;2.22;;;0.90;;
49820;SDS011;36893;52.520;13.450;2022-07-12T19:55:47;2.38;;;1.00;;
49820;SDS011;36893;52.520;13.450;2022-07-12T20:05:47;2.13;;;1.10;;
49820;SDS011;36893;52.520;13.450;2022-07-12T20:15:51;2.47;;;1.23;;
49820;SDS011;36893;52.520;13.450;2022-07-12T20:25:52;1.58;;;1.00;;
49820;SDS011;36893;52.520;13.450;2022-07-12T20:35:53;1.65;;;0.93;;
49820;SDS011;36893;52.520;13.450;2022-07-12T20:45:54;5.03;;;1.25;;
49820;SDS011;36893;52.520;13.450;2022-07-12T20:55:55;3.27;;;1.40;;
49820;SDS011;36893;52.520;13.450;2022-07-12T21:05:57;2.25;;;1.20;;
49820;SDS011;36893;52.520;13.450;2022-07-12T21:15:57;2.73;;;1.00;;
49820;SDS011;36893;52.520;13.450;2022-07-12T21:25:58;2.60;;;1.08;;
49820;SDS011;36893;52.520;13.450;2022-07-12T21:36:01;3.50;;;1.33;;
49820;SDS011;36893;52.520;13.450;2022-07-12T21:46:03;1.60;;;1.07;;
49820;SDS011;36893;52.520;13.450;2022-07-12T21:56:04;2.05;;;0.68;;
49820;SDS011;36893;52.520;13.450;2022-07-12T22:06:05;2.80;;;1.08;;
49820;SDS011;36893;52.520;13.450;2022-07-12T22:16:06;1.15;;;0.75;;
49820;SDS011;36893;52.520;13.450;2022-07-12T22:26:08;3.25;;;1.40;;
49820;SDS011;36893;52.520;13.450;2022-07-12T22:36:09;1.55;;;0.98;;
49820;SDS011;36893;52.520;13.450;2022-07-12T22:46:09;2.13;;;1.07;;
49820;SDS011;36893;52.520;13.450;2022-07-12T22:56:10;2.63;;;0.90;;
49820;SDS011;36893;52.520;13.450;2022-07-12T23:06:12;1.30;;;0.65;;
49820;SDS011;36893;52.520;13.450;2022-07-12T23:16:13;2.92;;;0.90;;
49820;SDS011;36893;52.520;13.450;2022-07-12T23:26:14;2.38;;;1.00;;
49820;SDS011;36893;52.520;13.450;2022-07-12T23:36:15;1.48;;;1.13;;
49820;SDS011;36893;52.520;13.450;2022-07-12T23:46:16;1.92;;;0.90;;
49820;SDS011;36893;52.520;13.450;2022-07-12T23:56:17;2.35;;;1.00;;
